UWLW 060700Z 15002MPS CAVOK M13/M15 Q1040 R20/800559 NOSIG RMK QFE775/1033
QNH:(hPa/inHg/mmHg)1040 / 30.71 / 780
QFE:(hPa/inHg/mmHg)1031 / 30.44 / 773
Temperature-13
Dew Point-15
Visibility> 10000
WeatherCAVOK
Cloud Cover
Transition Height900 m./3300 ft.
Transition LevelFL40
SQUAWK